Surveyor, WV (25932)

6:20 AM EDT on April 29, 2017 (GMT -0400)
Fairdale | | Change Station

Elev 1938 ft 37.74 °N, 81.35 °W | Updated 2 seconds ago

Mostly Cloudy
Mostly Cloudy
62.1 °F
Feels Like 62.1 °F
N
0.0
Wind Variable Wind from North
Gusts 0.0 mph

Today
High -- | Low -- °F
--% Chance of Precip.
Yesterday
High -- | Low -- °F
Precip. -- in
Pressure 30.04 in
Visibility 10.0 miles
Clouds Scattered Clouds 11000 ft
Dew Point 57 °F
Humidity 83%
Rainfall 0.00 in
Snow Depth Not available.
6:31 AM 8:14 PM
Waxing Crescent, 12% visible
METAR KBKW 290951Z AUTO 22008KT 10SM SCT110 21/14 A3015 RMK AO2 SLP171 T02110139 TSNO
Pressure 30.04 in
Visibility 10.0 miles
Clouds Scattered Clouds 11000 ft
Dew Point 57 °F
Humidity 83%
Rainfall 0.00 in
Snow Depth Not available.
6:31 AM 8:14 PM
Waxing Crescent, 12% visible
METAR KBKW 290951Z AUTO 22008KT 10SM SCT110 21/14 A3015 RMK AO2 SLP171 T02110139 TSNO

Get Severe Weather Alerts

Thanks for signing up!

Be on the lookout for a verification email in your inbox.

You'll start receiving the daily forecast at 8 AM.

×

10-Day Weather Forecast

Almanac

Astronomy

Apr. 29, 2017 Rise Set
Actual Time
Civil Twilight
Nautical Twilight
Astronomical Twilight
Moon
Length of Visible Light
Length of Day
Tomorrow will be .
, % of the Moon is Illuminated

Today's Extremes

State Highs State Lows

Community

WunderPhotos

WunderBlog® & News

Nearby

Air Quality

  Air Quality AQ Index Pollutant
Not available.

Snow Depth

Station Depth Elevation

Earthquake Activity

City Distance Mag. Time & Date
Minimum magnitude displayed is 2.5.

Coastal Water Temperatures

Place Temperature

Stations

Nearby Weather Stations

Station Location Temp. Windchill Dew Point Humidity Wind Precip. Elev Updated Type
                   

Watches & Warnings

There are currently no watches in effect.